Time;durP1;ratioP1;P1;durP2;ratioP2;P2;SDS_P1;SDS_P2;PMS_P1;PMS_P2;Temp;Humidity;BMP_temperature;BMP_pressure;BME280_temperature;BME280_humidity;BME280_pressure;Samples;Min_cycle;Max_cycle;Signal;HPM_P1;HPM_P2
2022/06/01 00:01:49;;;;;;;12.60;12.20;;;21.30;69.80;;;;;;5034231;28;20469;-66
2022/06/01 00:04:16;;;;;;;13.40;13.00;;;21.20;70.50;;;;;;5034248;28;20449;-66
2022/06/01 00:06:42;;;;;;;13.00;12.50;;;21.30;69.80;;;;;;5034218;28;20460;-66
2022/06/01 00:09:11;;;;;;;12.40;12.10;;;21.30;69.90;;;;;;5033965;28;20457;-66
2022/06/01 00:11:38;;;;;;;11.80;11.50;;;21.30;69.90;;;;;;5034138;28;20484;-66
2022/06/01 00:14:05;;;;;;;12.90;12.53;;;21.20;69.90;;;;;;5034101;28;20445;-66
2022/06/01 00:16:32;;;;;;;12.67;12.27;;;21.20;70.00;;;;;;5034103;28;20448;-66
2022/06/01 00:18:59;;;;;;;12.50;12.10;;;21.20;70.00;;;;;;5033504;28;20445;-66
2022/06/01 00:21:26;;;;;;;12.70;12.30;;;21.20;70.00;;;;;;5034046;28;20441;-66
2022/06/01 00:23:52;;;;;;;12.40;12.10;;;21.20;69.90;;;;;;5033898;28;20445;-66
2022/06/01 00:26:21;;;;;;;12.83;12.50;;;21.20;69.90;;;;;;5033883;28;20441;-66
2022/06/01 00:28:47;;;;;;;13.30;12.90;;;21.20;70.00;;;;;;5033460;28;20826;-66
2022/06/01 00:31:14;;;;;;;12.40;12.00;;;21.20;70.00;;;;;;5033536;28;20862;-66
2022/06/01 00:33:42;;;;;;;12.33;11.93;;;21.20;70.10;;;;;;5033738;28;20482;-66
2022/06/01 00:36:10;;;;;;;12.53;12.20;;;21.20;70.20;;;;;;5033721;28;20511;-66
2022/06/01 00:38:37;;;;;;;12.20;11.90;;;21.20;70.10;;;;;;5033215;28;20449;-66
2022/06/01 00:41:03;;;;;;;12.47;12.17;;;21.20;70.10;;;;;;5033660;28;20720;-66
2022/06/01 00:43:42;;;;;;;13.70;13.30;;;21.20;70.20;;;;;;5033505;28;20464;-66
2022/06/01 00:46:09;;;;;;;12.70;12.40;;;21.20;70.20;;;;;;5033665;28;20519;-66
2022/06/01 00:48:39;;;;;;;12.47;12.07;;;21.10;70.10;;;;;;5032972;28;20480;-66
2022/06/01 00:51:07;;;;;;;12.67;12.37;;;21.10;70.10;;;;;;5033318;28;20548;-66
2022/06/01 00:53:36;;;;;;;12.90;12.60;;;21.10;70.20;;;;;;5033386;28;20457;-66
2022/06/01 00:56:08;;;;;;;12.60;12.30;;;21.10;70.20;;;;;;5033465;28;20441;-66
2022/06/01 00:58:40;;;;;;;12.33;12.03;;;21.10;70.20;;;;;;5032950;28;20453;-66
2022/06/01 01:01:11;;;;;;;12.50;12.20;;;21.10;70.20;;;;;;5033189;28;20452;-66
2022/06/01 01:03:42;;;;;;;12.77;12.37;;;21.10;70.20;;;;;;5033548;28;20851;-66
2022/06/01 01:06:13;;;;;;;12.20;11.90;;;21.10;70.30;;;;;;5033208;28;20519;-66
2022/06/01 01:08:40;;;;;;;11.97;11.67;;;21.10;70.30;;;;;;5032654;28;20539;-66
2022/06/01 01:11:08;;;;;;;12.80;12.50;;;21.10;70.30;;;;;;5032965;28;20449;-66
2022/06/01 01:13:35;;;;;;;12.50;12.20;;;21.10;70.40;;;;;;5033054;28;20449;-66
2022/06/01 01:16:04;;;;;;;13.23;12.83;;;21.00;70.40;;;;;;5032963;28;20441;-66
2022/06/01 01:18:36;;;;;;;12.20;11.90;;;21.00;70.40;;;;;;5032709;28;20485;-66
2022/06/01 01:21:16;;;;;;;12.60;12.20;;;21.10;70.50;;;;;;5032848;28;20437;-66
2022/06/01 01:23:54;;;;;;;13.30;12.90;;;21.00;70.40;;;;;;5032802;28;20544;-66
2022/06/01 01:26:24;;;;;;;12.50;12.13;;;21.00;70.40;;;;;;5032764;28;20445;-66
2022/06/01 01:28:52;;;;;;;12.10;11.80;;;21.00;70.40;;;;;;5032324;28;20816;-66
2022/06/01 01:31:21;;;;;;;12.37;12.07;;;21.00;70.50;;;;;;5032420;28;20816;-66
2022/06/01 01:33:50;;;;;;;13.13;12.70;;;21.00;70.50;;;;;;5032719;28;20444;-66
2022/06/01 01:36:21;;;;;;;12.63;12.23;;;21.00;70.40;;;;;;5032022;28;20441;-66
2022/06/01 01:38:51;;;;;;;12.87;12.47;;;21.00;70.50;;;;;;5032386;28;20452;-66
2022/06/01 01:41:26;;;;;;;13.37;13.00;;;21.00;70.50;;;;;;5032000;28;20438;-66
2022/06/01 01:43:59;;;;;;;12.27;11.97;;;21.00;70.40;;;;;;5032482;28;20452;-66
2022/06/01 01:46:27;;;;;;;12.80;12.50;;;21.00;70.30;;;;;;5032129;28;20477;-66
2022/06/01 01:48:54;;;;;;;12.43;12.13;;;21.00;70.40;;;;;;5032196;28;20480;-66
2022/06/01 01:51:22;;;;;;;12.27;11.97;;;21.00;70.40;;;;;;5032145;28;20933;-66
2022/06/01 01:53:49;;;;;;;12.57;12.27;;;20.90;70.40;;;;;;5032580;28;20438;-66
2022/06/01 01:56:31;;;;;;;13.00;12.60;;;20.90;70.40;;;;;;5031943;28;20460;-66
2022/06/01 01:59:11;;;;;;;12.53;12.23;;;20.90;70.40;;;;;;5031713;28;20831;-66
2022/06/01 02:01:45;;;;;;;12.70;12.40;;;20.90;70.40;;;;;;5032083;28;20551;-66
2022/06/01 02:07:09;;;;;;;13.77;13.37;;;20.90;70.30;;;;;;5031778;28;20499;-66
2022/06/01 02:15:00;;;;;;;12.30;12.00;;;20.90;70.30;;;;;;5018872;28;20776;-66
2022/06/01 02:17:32;;;;;;;12.30;12.00;;;20.90;70.40;;;;;;5031482;28;20445;-66
2022/06/01 02:20:05;;;;;;;13.77;13.33;;;20.90;70.40;;;;;;5031844;28;20444;-66
2022/06/01 02:22:34;;;;;;;12.53;12.23;;;20.90;70.40;;;;;;5031787;28;20460;-66
2022/06/01 02:25:01;;;;;;;12.30;12.00;;;20.90;70.30;;;;;;5031654;28;20849;-66
2022/06/01 02:27:30;;;;;;;12.23;11.93;;;20.90;70.40;;;;;;5030941;28;20975;-65
2022/06/01 02:30:02;;;;;;;12.50;12.20;;;20.90;70.40;;;;;;5031624;28;20456;-66
2022/06/01 02:32:29;;;;;;;13.10;12.70;;;20.90;70.40;;;;;;5031279;28;20492;-66
2022/06/01 02:35:00;;;;;;;12.97;12.60;;;20.90;70.40;;;;;;5031343;28;20471;-66
2022/06/01 02:37:29;;;;;;;12.90;12.60;;;20.90;70.30;;;;;;5031571;28;20449;-66
2022/06/01 02:40:00;;;;;;;12.60;12.30;;;20.90;70.30;;;;;;5031526;28;20449;-66
2022/06/01 02:42:26;;;;;;;13.67;13.27;;;20.90;71.10;;;;;;5031487;28;20461;-66
2022/06/01 02:44:55;;;;;;;13.80;13.40;;;20.90;70.30;;;;;;5031374;28;20503;-65
2022/06/01 02:47:23;;;;;;;13.70;13.30;;;20.90;70.40;;;;;;5031362;28;20790;-66
2022/06/01 02:49:50;;;;;;;12.80;12.50;;;20.90;70.40;;;;;;5031839;28;20441;-66
2022/06/01 02:52:17;;;;;;;12.53;12.23;;;20.80;71.00;;;;;;5031319;28;20588;-66
2022/06/01 02:54:43;;;;;;;12.93;12.63;;;20.90;70.40;;;;;;5033772;28;20452;-66
2022/06/01 02:57:11;;;;;;;13.80;13.40;;;20.80;70.30;;;;;;5035399;28;20468;-66
2022/06/01 02:59:37;;;;;;;12.73;12.43;;;20.80;70.40;;;;;;5035717;28;20444;-66
2022/06/01 03:02:09;;;;;;;13.17;12.87;;;20.80;70.40;;;;;;5035458;28;20477;-66
2022/06/01 03:04:36;;;;;;;13.57;13.17;;;20.80;70.50;;;;;;5035383;28;20535;-66
2022/06/01 03:07:02;;;;;;;13.03;12.73;;;20.80;70.40;;;;;;5035228;28;20501;-66
2022/06/01 03:09:29;;;;;;;12.80;12.50;;;20.80;70.40;;;;;;5035281;28;20506;-66
2022/06/01 03:11:56;;;;;;;13.40;13.00;;;20.80;70.40;;;;;;5035346;28;20496;-66
2022/06/01 03:14:23;;;;;;;13.37;12.97;;;20.80;70.40;;;;;;5034912;28;20449;-66
2022/06/01 03:16:50;;;;;;;13.30;12.97;;;20.80;70.40;;;;;;5035058;28;20782;-65
2022/06/01 03:19:18;;;;;;;13.53;13.23;;;20.80;70.40;;;;;;5035110;28;20511;-66
2022/06/01 03:21:45;;;;;;;13.73;13.33;;;20.70;70.40;;;;;;5035356;28;20467;-66
2022/06/01 03:24:11;;;;;;;13.17;12.87;;;20.70;70.40;;;;;;5034841;28;20457;-66
2022/06/01 03:26:38;;;;;;;13.80;13.50;;;20.70;70.40;;;;;;5034294;28;20936;-66
2022/06/01 03:29:05;;;;;;;13.20;12.90;;;20.80;70.40;;;;;;5034743;28;20448;-66
2022/06/01 03:31:32;;;;;;;13.40;13.00;;;20.80;70.60;;;;;;5034845;28;20481;-66
2022/06/01 03:34:00;;;;;;;13.20;12.83;;;20.70;70.40;;;;;;5034920;28;20487;-66
2022/06/01 03:36:28;;;;;;;14.17;13.67;;;20.70;70.20;;;;;;5034664;28;20459;-66
2022/06/01 03:38:55;;;;;;;14.03;13.63;;;20.70;70.30;;;;;;5034663;28;20812;-66
2022/06/01 03:41:22;;;;;;;13.90;13.50;;;20.70;70.30;;;;;;5034669;28;20452;-66
2022/06/01 03:46:34;;;;;;;14.30;13.90;;;20.70;70.40;;;;;;5034934;28;20420;-66
2022/06/01 03:49:01;;;;;;;14.20;13.80;;;20.70;70.70;;;;;;5034600;28;20452;-66
2022/06/01 03:51:29;;;;;;;13.70;13.30;;;20.70;70.60;;;;;;5034808;28;20463;-66
2022/06/01 03:53:56;;;;;;;14.40;13.90;;;20.70;70.40;;;;;;5034247;28;20484;-66
2022/06/01 03:56:23;;;;;;;14.33;13.93;;;20.70;70.20;;;;;;5034434;28;20448;-66
2022/06/01 03:58:51;;;;;;;13.57;13.20;;;20.70;70.30;;;;;;5034241;28;20548;-66
2022/06/01 04:01:18;;;;;;;13.47;13.10;;;20.70;70.20;;;;;;5034329;28;20474;-66
2022/06/01 04:03:45;;;;;;;13.80;13.40;;;20.70;70.30;;;;;;5034136;28;20452;-66
2022/06/01 04:06:12;;;;;;;14.30;13.90;;;20.70;70.40;;;;;;5034034;28;20452;-66
2022/06/01 04:08:40;;;;;;;13.90;13.60;;;20.70;70.50;;;;;;5033818;28;20979;-66
2022/06/01 04:11:07;;;;;;;15.00;14.60;;;20.70;70.50;;;;;;5034192;28;20449;-66
2022/06/01 04:13:35;;;;;;;14.67;14.27;;;20.70;70.50;;;;;;5033998;28;20873;-66
2022/06/01 04:16:02;;;;;;;14.90;14.50;;;20.70;70.60;;;;;;5034109;28;20518;-66
2022/06/01 04:18:29;;;;;;;15.90;15.40;;;20.70;70.50;;;;;;5033865;28;20448;-66
2022/06/01 04:20:57;;;;;;;15.07;14.57;;;20.70;70.40;;;;;;5034060;28;20445;-66
2022/06/01 04:23:23;;;;;;;14.97;14.50;;;20.70;70.20;;;;;;5033596;28;20496;-66
2022/06/01 04:25:52;;;;;;;16.97;16.17;;;20.70;70.40;;;;;;5034033;28;20441;-66
2022/06/01 04:28:18;;;;;;;17.17;16.47;;;20.80;71.80;;;;;;5033527;28;20956;-66
2022/06/01 04:30:46;;;;;;;18.20;16.80;;;20.80;73.10;;;;;;5033827;28;20448;-66
2022/06/01 04:33:13;;;;;;;17.43;16.20;;;20.80;75.10;;;;;;5033920;28;20571;-66
2022/06/01 04:35:40;;;;;;;17.97;16.60;;;20.80;76.70;;;;;;5033777;28;20941;-66
2022/06/01 04:38:18;;;;;;;19.60;18.30;;;20.80;87.00;;;;;;5033472;28;20437;-66
2022/06/01 04:40:47;;;;;;;18.60;17.17;;;20.80;84.30;;;;;;5033661;28;20448;-66
2022/06/01 04:43:16;;;;;;;18.93;17.33;;;20.80;82.80;;;;;;5033331;28;20461;-66
2022/06/01 04:45:43;;;;;;;17.83;16.90;;;20.80;82.50;;;;;;5033611;28;20445;-66
2022/06/01 04:48:10;;;;;;;19.80;18.33;;;20.90;82.20;;;;;;5033281;28;20449;-66
2022/06/01 04:50:42;;;;;;;19.07;17.83;;;20.80;81.80;;;;;;5033483;28;20451;-66
2022/06/01 04:53:09;;;;;;;18.87;17.47;;;20.80;81.70;;;;;;5033214;28;20485;-66
2022/06/01 04:55:36;;;;;;;20.10;18.60;;;20.80;81.20;;;;;;5033446;28;20445;-66
2022/06/01 04:58:02;;;;;;;19.53;18.27;;;20.80;81.10;;;;;;5033120;28;20445;-66
2022/06/01 05:00:30;;;;;;;18.30;17.40;;;20.80;80.60;;;;;;5033254;28;20954;-66
2022/06/01 05:02:57;;;;;;;18.20;17.30;;;20.80;80.40;;;;;;5033495;28;20457;-66
2022/06/01 05:05:24;;;;;;;19.37;18.13;;;20.80;80.10;;;;;;5033184;28;20448;-67
2022/06/01 05:07:51;;;;;;;20.40;19.20;;;20.80;79.70;;;;;;5032934;28;20837;-66
2022/06/01 05:10:19;;;;;;;19.63;18.23;;;20.80;79.50;;;;;;5033281;28;20445;-66
2022/06/01 05:12:46;;;;;;;17.50;16.47;;;20.80;79.10;;;;;;5032897;28;20635;-66
2022/06/01 05:15:13;;;;;;;19.57;18.07;;;20.80;78.90;;;;;;5032977;28;20445;-66
2022/06/01 05:17:41;;;;;;;18.63;17.77;;;20.80;78.60;;;;;;5031971;28;20445;-66
2022/06/01 05:20:10;;;;;;;18.80;17.70;;;20.80;78.30;;;;;;5032943;28;20515;-66
2022/06/01 05:22:37;;;;;;;18.63;17.70;;;20.80;77.90;;;;;;5032695;28;20465;-66
2022/06/01 05:25:05;;;;;;;19.03;17.77;;;20.80;77.70;;;;;;5032982;28;20441;-66
2022/06/01 05:27:31;;;;;;;18.60;17.80;;;20.80;77.50;;;;;;5032567;28;20456;-66
2022/06/01 05:29:58;;;;;;;18.03;17.23;;;20.80;77.30;;;;;;5032859;28;20437;-66
2022/06/01 05:32:25;;;;;;;18.10;17.20;;;20.80;77.10;;;;;;5032530;28;20483;-66
2022/06/01 05:34:53;;;;;;;20.50;19.33;;;20.80;76.90;;;;;;5032715;28;20456;-66
2022/06/01 05:37:20;;;;;;;19.10;18.27;;;20.80;76.60;;;;;;5032373;28;20452;-66
2022/06/01 05:39:47;;;;;;;18.33;17.50;;;20.70;76.30;;;;;;5032645;28;20449;-66
2022/06/01 05:42:14;;;;;;;18.43;17.23;;;20.70;76.10;;;;;;5032309;28;20987;-66
2022/06/01 05:44:41;;;;;;;18.47;17.27;;;20.80;76.00;;;;;;5032362;28;20464;-66
2022/06/01 05:47:08;;;;;;;17.67;16.67;;;20.80;75.70;;;;;;5032239;28;20453;-66
2022/06/01 05:49:34;;;;;;;17.23;16.43;;;20.70;75.40;;;;;;5032202;28;20441;-66
2022/06/01 05:52:03;;;;;;;18.03;17.20;;;20.80;75.30;;;;;;5032237;28;20472;-66
2022/06/01 05:54:29;;;;;;;17.60;16.90;;;20.70;75.10;;;;;;5032367;28;20485;-67
2022/06/01 05:56:56;;;;;;;17.50;16.70;;;20.70;74.90;;;;;;5032011;28;20967;-66
2022/06/01 05:59:23;;;;;;;17.80;17.13;;;20.70;74.80;;;;;;5032330;28;20445;-66
2022/06/01 06:01:50;;;;;;;17.27;16.67;;;20.70;74.60;;;;;;5032115;28;20468;-66
2022/06/01 06:04:16;;;;;;;17.63;16.80;;;20.70;74.50;;;;;;5032279;28;20524;-66
2022/06/01 06:06:43;;;;;;;17.90;17.10;;;20.70;74.30;;;;;;5031956;28;20960;-66
2022/06/01 06:09:11;;;;;;;17.23;16.43;;;20.70;74.10;;;;;;5031901;28;20871;-66
2022/06/01 06:11:40;;;;;;;17.10;16.40;;;20.70;74.00;;;;;;5031782;28;20840;-65
2022/06/01 06:14:07;;;;;;;18.13;17.03;;;20.70;73.90;;;;;;5031782;28;20476;-65
2022/06/01 06:16:37;;;;;;;17.40;16.60;;;20.70;73.70;;;;;;5031919;28;20441;-66
2022/06/01 06:19:05;;;;;;;17.00;16.40;;;20.70;73.60;;;;;;5031687;28;20441;-66
2022/06/01 06:21:32;;;;;;;16.90;16.20;;;20.70;73.40;;;;;;5031613;28;20462;-67
2022/06/01 06:24:00;;;;;;;18.80;17.90;;;20.70;73.30;;;;;;5031871;28;20437;-66
2022/06/01 06:26:29;;;;;;;16.50;15.87;;;20.70;73.20;;;;;;5031691;28;20445;-66
2022/06/01 06:28:56;;;;;;;16.50;15.90;;;20.70;73.10;;;;;;5031372;28;20449;-66
2022/06/01 06:31:22;;;;;;;17.13;16.53;;;20.70;73.00;;;;;;5031434;28;20449;-66
2022/06/01 06:33:49;;;;;;;18.27;17.37;;;20.70;72.80;;;;;;5031612;28;20476;-65
2022/06/01 06:36:16;;;;;;;17.60;16.90;;;20.70;72.80;;;;;;5031979;28;20448;-66
2022/06/01 06:38:43;;;;;;;17.20;16.40;;;20.70;72.60;;;;;;5031374;28;20472;-66
2022/06/01 06:41:11;;;;;;;17.40;16.70;;;20.70;72.50;;;;;;5031460;28;20445;-66
2022/06/01 06:43:40;;;;;;;17.53;16.87;;;20.70;72.40;;;;;;5031482;28;20491;-66
2022/06/01 06:46:09;;;;;;;16.63;16.03;;;20.70;72.30;;;;;;5031785;28;20441;-66
2022/06/01 06:48:36;;;;;;;16.70;16.00;;;20.70;72.20;;;;;;5031453;28;20959;-66
2022/06/01 06:51:04;;;;;;;16.60;15.80;;;20.70;72.00;;;;;;5031422;28;20444;-66
2022/06/01 06:53:31;;;;;;;15.73;15.13;;;20.70;72.00;;;;;;5031304;28;20481;-65
2022/06/01 06:55:58;;;;;;;17.23;16.63;;;20.70;71.80;;;;;;5031379;28;20456;-66
2022/06/01 06:58:25;;;;;;;16.40;15.80;;;20.70;71.70;;;;;;5031202;28;20441;-66
2022/06/01 07:00:53;;;;;;;16.60;16.00;;;20.70;71.70;;;;;;5031415;28;20448;-66
2022/06/01 07:03:20;;;;;;;16.40;15.80;;;20.70;71.60;;;;;;5031222;28;20471;-66
2022/06/01 07:08:31;;;;;;;16.00;15.40;;;20.70;71.40;;;;;;5031260;28;20421;-66
2022/06/01 07:10:59;;;;;;;16.17;15.67;;;20.70;71.30;;;;;;5031289;28;20449;-66
2022/06/01 07:13:27;;;;;;;16.83;16.13;;;20.70;71.30;;;;;;5031125;28;20485;-65
2022/06/01 07:16:07;;;;;;;17.57;16.67;;;20.70;71.20;;;;;;5031325;28;20940;-66
2022/06/01 07:18:35;;;;;;;16.10;15.60;;;20.70;71.20;;;;;;5031109;28;20453;-66
2022/06/01 07:21:02;;;;;;;16.60;16.10;;;20.70;71.00;;;;;;5031157;28;20966;-66
2022/06/01 07:23:30;;;;;;;17.30;16.60;;;20.70;71.00;;;;;;5031141;28;20456;-65
2022/06/01 07:25:57;;;;;;;17.13;16.43;;;20.70;70.90;;;;;;5031434;28;20821;-66
2022/06/01 07:28:24;;;;;;;16.60;16.03;;;20.70;70.90;;;;;;5030899;28;20452;-66
2022/06/01 07:30:56;;;;;;;17.10;16.40;;;20.70;70.80;;;;;;5031260;28;20795;-66
2022/06/01 07:33:25;;;;;;;16.60;16.00;;;20.70;70.70;;;;;;5030793;28;20496;-66
2022/06/01 07:35:52;;;;;;;16.27;15.70;;;20.70;70.70;;;;;;5031173;28;20445;-66
2022/06/01 07:43:47;;;;;;;16.13;15.50;;;20.70;70.50;;;;;;5035101;28;20776;-66
2022/06/01 07:46:14;;;;;;;15.67;15.17;;;20.70;70.40;;;;;;5034805;28;20452;-66
2022/06/01 07:48:42;;;;;;;16.37;15.70;;;20.70;70.40;;;;;;5034348;28;20445;-66
2022/06/01 07:51:09;;;;;;;16.40;15.90;;;20.70;70.30;;;;;;5034605;28;20445;-66
2022/06/01 07:53:36;;;;;;;15.67;15.07;;;20.70;70.30;;;;;;5034418;28;20481;-66
2022/06/01 07:56:02;;;;;;;16.43;15.83;;;20.70;70.20;;;;;;5034842;28;20441;-66
2022/06/01 07:58:29;;;;;;;15.97;15.40;;;20.70;70.10;;;;;;5034302;28;21019;-66
2022/06/01 08:00:56;;;;;;;15.30;14.83;;;20.70;70.10;;;;;;5034689;28;20449;-66
2022/06/01 08:03:22;;;;;;;15.53;14.97;;;20.70;70.10;;;;;;5034286;28;20473;-66
2022/06/01 08:05:51;;;;;;;14.67;14.27;;;20.70;69.90;;;;;;5034447;28;20809;-66
2022/06/01 08:08:17;;;;;;;15.20;14.70;;;20.70;69.90;;;;;;5034210;28;20456;-65
2022/06/01 08:10:44;;;;;;;16.67;15.90;;;20.70;69.80;;;;;;5034302;28;20448;-65
2022/06/01 08:13:12;;;;;;;16.33;15.77;;;20.70;69.80;;;;;;5034605;28;20461;-66
2022/06/01 08:15:42;;;;;;;15.37;14.87;;;20.70;69.80;;;;;;5034105;28;20554;-66
2022/06/01 08:18:10;;;;;;;15.73;15.23;;;20.70;69.70;;;;;;5034169;28;20800;-66
2022/06/01 08:20:38;;;;;;;15.00;14.60;;;20.70;69.60;;;;;;5034153;28;20457;-65
2022/06/01 08:23:07;;;;;;;15.27;14.87;;;20.70;69.60;;;;;;5033921;28;20818;-66
2022/06/01 08:25:34;;;;;;;15.80;15.30;;;20.70;69.60;;;;;;5034139;28;20441;-66
2022/06/01 08:28:01;;;;;;;15.70;15.20;;;20.70;69.50;;;;;;5033783;28;20452;-66
2022/06/01 08:30:31;;;;;;;15.93;15.33;;;20.70;69.50;;;;;;5033825;28;20452;-66
2022/06/01 08:32:58;;;;;;;16.13;15.53;;;20.70;69.50;;;;;;5033944;28;20477;-66
2022/06/01 08:35:28;;;;;;;15.83;15.33;;;20.70;69.40;;;;;;5033757;28;20512;-66
2022/06/01 08:37:55;;;;;;;15.90;15.40;;;20.70;69.40;;;;;;5033626;28;20963;-66
2022/06/01 08:40:29;;;;;;;15.20;14.80;;;20.70;69.40;;;;;;5033901;28;20441;-66
2022/06/01 08:43:01;;;;;;;15.30;14.90;;;20.70;69.30;;;;;;5033680;28;20480;-66
2022/06/01 08:45:29;;;;;;;14.73;14.33;;;20.70;69.20;;;;;;5033718;28;20453;-66
2022/06/01 08:47:56;;;;;;;15.57;15.17;;;20.70;69.20;;;;;;5033369;28;20448;-66
2022/06/01 08:50:28;;;;;;;14.80;14.30;;;20.70;69.10;;;;;;5033474;28;20785;-66
2022/06/01 08:52:58;;;;;;;14.90;14.40;;;20.70;69.20;;;;;;5033387;28;20464;-66
2022/06/01 08:55:36;;;;;;;15.50;15.10;;;20.70;69.20;;;;;;5033460;28;20488;-66
2022/06/01 08:58:11;;;;;;;15.67;14.90;;;20.70;69.10;;;;;;5033216;28;20440;-66
2022/06/01 09:00:44;;;;;;;15.00;14.60;;;20.70;69.00;;;;;;5033619;28;20448;-66
2022/06/01 09:03:18;;;;;;;14.90;14.50;;;20.70;69.00;;;;;;5033228;28;20476;-66
2022/06/01 09:05:49;;;;;;;14.63;14.20;;;20.70;69.00;;;;;;5033264;28;20800;-66
2022/06/01 09:08:25;;;;;;;14.60;14.10;;;20.70;69.00;;;;;;5032994;28;20444;-66
2022/06/01 09:11:02;;;;;;;15.70;15.20;;;20.70;69.00;;;;;;5033130;28;20445;-66
2022/06/01 09:13:35;;;;;;;15.00;14.60;;;20.70;68.90;;;;;;5032901;28;20468;-66
2022/06/01 09:16:04;;;;;;;15.60;15.10;;;20.70;68.90;;;;;;5033307;28;20452;-66
2022/06/01 09:18:38;;;;;;;15.57;15.07;;;20.70;68.90;;;;;;5032698;28;20823;-66
2022/06/01 09:23:49;;;;;;;15.47;15.07;;;20.70;68.80;;;;;;5032969;28;20936;-66
2022/06/01 09:26:29;;;;;;;15.30;14.80;;;20.80;68.90;;;;;;5032907;28;20444;-66
2022/06/01 09:28:58;;;;;;;15.73;15.17;;;20.70;68.70;;;;;;5032561;28;20502;-66
2022/06/01 09:31:31;;;;;;;16.20;15.50;;;20.80;68.80;;;;;;5032503;28;20496;-66
2022/06/01 09:34:26;;;;;;;15.53;15.03;;;20.80;68.80;;;;;;5032659;28;21022;-66
2022/06/01 09:37:06;;;;;;;15.57;15.07;;;20.80;68.80;;;;;;5032737;28;20445;-66
2022/06/01 09:39:34;;;;;;;14.83;14.43;;;20.80;68.80;;;;;;5032517;28;20441;-66
2022/06/01 09:42:23;;;;;;;15.30;14.83;;;20.80;68.80;;;;;;5032483;28;20467;-66
2022/06/01 09:44:50;;;;;;;15.40;14.80;;;20.80;69.50;;;;;;5032538;28;20532;-66
2022/06/01 09:47:36;;;;;;;14.83;14.43;;;20.80;68.70;;;;;;5032449;28;20445;-66
2022/06/01 09:50:06;;;;;;;14.77;14.37;;;20.80;68.70;;;;;;5032438;28;20503;-66
2022/06/01 09:52:39;;;;;;;15.37;14.97;;;20.80;68.70;;;;;;5032279;28;20457;-66
2022/06/01 09:55:15;;;;;;;15.57;15.03;;;20.80;68.60;;;;;;5032210;28;20487;-67
2022/06/01 09:57:44;;;;;;;15.07;14.67;;;20.80;68.60;;;;;;5032028;28;20455;-66
2022/06/01 10:06:21;;;;;;;15.40;14.97;;;20.80;68.50;;;;;;5032255;28;20440;-66
2022/06/01 10:08:58;;;;;;;15.20;14.80;;;20.80;68.50;;;;;;5032037;28;20472;-66
2022/06/01 10:11:46;;;;;;;14.70;14.30;;;20.80;68.50;;;;;;5032048;28;20440;-66
2022/06/01 10:14:23;;;;;;;14.67;14.27;;;20.80;68.50;;;;;;5031911;28;20469;-66
2022/06/01 10:17:09;;;;;;;15.03;14.63;;;20.80;68.50;;;;;;5031848;28;20448;-66
2022/06/01 10:19:40;;;;;;;15.63;15.13;;;20.80;68.50;;;;;;5031911;28;20541;-66
2022/06/01 10:22:15;;;;;;;15.60;15.10;;;20.90;68.60;;;;;;5031887;28;20476;-66
2022/06/01 10:24:49;;;;;;;14.80;14.40;;;20.80;68.40;;;;;;5031790;28;20511;-66
2022/06/01 10:27:20;;;;;;;15.20;14.80;;;20.80;68.30;;;;;;5031728;28;20453;-66
2022/06/01 10:29:54;;;;;;;15.17;14.77;;;20.90;69.20;;;;;;5031626;28;20449;-66
2022/06/01 10:32:32;;;;;;;15.17;14.77;;;20.90;68.60;;;;;;5032184;28;20480;-66
2022/06/01 10:35:10;;;;;;;15.23;14.83;;;20.90;68.40;;;;;;5031551;28;20480;-66
2022/06/01 10:37:45;;;;;;;14.37;13.97;;;20.90;68.40;;;;;;5031456;28;20444;-66
2022/06/01 10:40:17;;;;;;;15.00;14.50;;;20.90;68.40;;;;;;5031733;28;20940;-65
2022/06/01 10:45:40;;;;;;;14.80;14.40;;;20.90;68.30;;;;;;5031706;28;20420;-66
2022/06/01 10:48:12;;;;;;;15.53;15.03;;;20.90;68.30;;;;;;5031252;28;20449;-66
2022/06/01 10:50:43;;;;;;;15.03;14.63;;;20.90;68.30;;;;;;5031473;28;20815;-66
2022/06/01 10:53:16;;;;;;;15.30;14.90;;;20.90;68.30;;;;;;5031488;28;20484;-66
2022/06/01 10:55:44;;;;;;;14.90;14.50;;;20.90;68.30;;;;;;5031298;28;20488;-66
2022/06/01 10:58:17;;;;;;;14.70;14.30;;;20.90;68.30;;;;;;5031269;28;20479;-66
2022/06/01 11:00:49;;;;;;;14.70;14.30;;;20.90;68.30;;;;;;5031399;28;20445;-66
2022/06/01 11:03:41;;;;;;;15.63;15.17;;;20.90;68.20;;;;;;5031358;28;20465;-66
2022/06/01 11:06:22;;;;;;;15.03;14.63;;;20.90;68.10;;;;;;5031411;28;20441;-66
2022/06/01 11:08:55;;;;;;;14.60;14.20;;;21.00;68.20;;;;;;5031020;28;20437;-66
2022/06/01 11:11:33;;;;;;;14.97;14.57;;;20.90;68.10;;;;;;5031205;28;20445;-66
2022/06/01 11:14:27;;;;;;;15.50;15.00;;;20.90;68.00;;;;;;5031256;28;20445;-66
2022/06/01 11:16:58;;;;;;;15.30;14.90;;;20.90;68.00;;;;;;5035139;28;20448;-66
2022/06/01 11:19:49;;;;;;;15.00;14.60;;;20.90;67.90;;;;;;5035171;28;20815;-67
2022/06/01 11:22:26;;;;;;;15.37;14.90;;;21.00;68.10;;;;;;5035139;28;20991;-66
2022/06/01 11:25:08;;;;;;;15.33;14.93;;;21.00;68.00;;;;;;5035414;28;20805;-66
2022/06/01 11:27:57;;;;;;;15.43;15.03;;;21.00;67.90;;;;;;5034923;28;20859;-66
2022/06/01 11:30:27;;;;;;;14.77;14.37;;;21.00;67.80;;;;;;5034996;28;20448;-66
2022/06/01 11:32:59;;;;;;;14.40;14.00;;;21.00;67.70;;;;;;5034801;28;20530;-66
2022/06/01 11:35:35;;;;;;;14.23;13.90;;;21.00;67.70;;;;;;5034836;28;20992;-66
2022/06/01 11:38:08;;;;;;;14.90;14.50;;;21.00;67.60;;;;;;5034643;28;20463;-66
2022/06/01 11:40:42;;;;;;;14.60;14.20;;;21.00;67.50;;;;;;5034885;28;20444;-66
2022/06/01 11:43:20;;;;;;;14.80;14.40;;;21.10;67.60;;;;;;5034882;28;20475;-66
2022/06/01 11:45:52;;;;;;;14.70;14.30;;;21.10;67.50;;;;;;5034703;28;20441;-66
2022/06/01 11:48:25;;;;;;;14.83;14.43;;;21.10;67.40;;;;;;5034413;28;20461;-66
2022/06/01 11:51:11;;;;;;;14.93;14.53;;;21.10;67.40;;;;;;5034665;28;20520;-66
2022/06/01 11:53:46;;;;;;;14.70;14.30;;;21.10;67.40;;;;;;5034586;28;20455;-66
2022/06/01 11:56:26;;;;;;;15.30;14.80;;;21.10;67.30;;;;;;5034500;28;20491;-66
2022/06/01 11:59:15;;;;;;;15.00;14.60;;;21.10;67.30;;;;;;5034274;28;20452;-66
2022/06/01 12:01:47;;;;;;;15.00;14.60;;;21.10;67.30;;;;;;5034335;28;20884;-66
2022/06/01 12:04:28;;;;;;;15.70;15.23;;;21.10;67.20;;;;;;5034292;28;20464;-67
2022/06/01 12:07:01;;;;;;;14.93;14.53;;;21.10;67.10;;;;;;5034533;28;20441;-66
2022/06/01 12:09:45;;;;;;;14.57;14.17;;;21.10;67.90;;;;;;5034429;28;20445;-66
2022/06/01 12:12:47;;;;;;;15.30;14.90;;;21.20;67.20;;;;;;5033250;28;20485;-66
2022/06/01 12:15:21;;;;;;;15.20;14.70;;;21.20;67.10;;;;;;5034139;28;20846;-66
2022/06/01 12:18:14;;;;;;;14.60;14.20;;;21.20;67.10;;;;;;5033940;28;20449;-66
2022/06/01 12:20:50;;;;;;;14.97;14.57;;;21.20;67.10;;;;;;5033809;28;20511;-66
2022/06/01 12:29:56;;;;;;;14.70;14.30;;;21.20;67.10;;;;;;5033993;28;20483;-66
2022/06/01 12:32:23;;;;;;;14.87;14.47;;;21.20;67.10;;;;;;5033758;28;20531;-66
2022/06/01 12:35:16;;;;;;;15.13;14.73;;;21.20;67.10;;;;;;5033782;28;20760;-66
2022/06/01 12:37:52;;;;;;;15.00;14.60;;;21.20;67.10;;;;;;5024055;28;20457;-66
2022/06/01 12:40:21;;;;;;;14.60;14.20;;;21.20;67.10;;;;;;5033800;28;20452;-66
2022/06/01 12:42:54;;;;;;;14.40;14.00;;;21.20;67.10;;;;;;5033571;28;20496;-66
2022/06/01 12:45:24;;;;;;;14.33;13.93;;;21.20;67.10;;;;;;5033926;28;20449;-66
2022/06/01 12:47:59;;;;;;;14.70;14.30;;;21.20;67.10;;;;;;5033342;28;20441;-66
2022/06/01 12:50:29;;;;;;;14.63;14.23;;;21.20;67.10;;;;;;5033528;28;20440;-66
2022/06/01 12:53:17;;;;;;;15.00;14.60;;;21.20;67.10;;;;;;5033424;28;20473;-66
2022/06/01 12:55:44;;;;;;;14.53;13.93;;;21.20;67.00;;;;;;5033613;28;20507;-66
2022/06/01 12:58:20;;;;;;;14.50;14.10;;;21.30;67.00;;;;;;5033132;28;20958;-67
2022/06/01 13:00:50;;;;;;;14.33;13.93;;;21.20;66.90;;;;;;5033414;28;20826;-66
2022/06/01 13:03:20;;;;;;;14.23;13.83;;;21.30;67.10;;;;;;5033115;28;20473;-66
2022/06/01 13:05:52;;;;;;;13.97;13.63;;;21.30;67.10;;;;;;5033240;28;20959;-66
2022/06/01 13:08:23;;;;;;;13.70;13.40;;;21.20;67.00;;;;;;5033066;28;20940;-67
2022/06/01 13:10:49;;;;;;;13.80;13.40;;;21.30;67.90;;;;;;5033145;28;20450;-66
2022/06/01 13:13:20;;;;;;;14.30;13.90;;;21.30;67.00;;;;;;5033201;28;20468;-67
2022/06/01 13:15:56;;;;;;;14.30;13.90;;;21.30;67.00;;;;;;5032253;28;21173;-67
2022/06/01 13:18:29;;;;;;;14.37;13.97;;;21.30;67.00;;;;;;5032137;28;20441;-66
2022/06/01 13:21:01;;;;;;;14.60;14.20;;;21.30;66.90;;;;;;5032760;28;20804;-67
2022/06/01 13:23:34;;;;;;;11.97;11.67;;;21.30;66.90;;;;;;5032311;28;20465;-65